createdAt,value
2022-12-20T00:00:52.309Z,102101.72
2022-12-20T00:03:19.256Z,102102.66
2022-12-20T00:05:46.350Z,102103.50
2022-12-20T00:08:15.251Z,102105.34
2022-12-20T00:10:44.263Z,102096.44
2022-12-20T00:13:12.600Z,102095.53
2022-12-20T00:15:46.389Z,102067.88
2022-12-20T00:18:17.463Z,102085.72
2022-12-20T00:21:01.056Z,102085.69
2022-12-20T00:23:33.015Z,102056.31
2022-12-20T00:26:13.069Z,102067.03
2022-12-20T00:28:41.338Z,102048.28
2022-12-20T00:31:11.374Z,102055.44
2022-12-20T00:33:44.891Z,102052.75
2022-12-20T00:36:11.995Z,102060.81
2022-12-20T00:38:40.013Z,102069.72
2022-12-20T00:41:08.496Z,102066.09
2022-12-20T00:43:36.078Z,102068.78
2022-12-20T00:46:03.467Z,102066.09
2022-12-20T00:48:32.105Z,102070.59
2022-12-20T00:50:59.627Z,102063.44
2022-12-20T00:53:26.865Z,102058.06
2022-12-20T00:55:55.083Z,102058.09
2022-12-20T00:58:22.398Z,102047.38
2022-12-20T01:00:55.932Z,102048.34
2022-12-20T01:03:23.892Z,102054.50
2022-12-20T01:05:52.220Z,102053.66
2022-12-20T01:08:19.752Z,102042.09
2022-12-20T01:10:46.379Z,102042.03
2022-12-20T01:13:14.331Z,102058.09
2022-12-20T01:15:40.895Z,102049.22
2022-12-20T01:18:07.500Z,102045.66
2022-12-20T01:20:34.058Z,102034.94
2022-12-20T01:23:00.628Z,102041.19
2022-12-20T01:25:27.205Z,102038.53
2022-12-20T01:27:53.764Z,102034.03
2022-12-20T01:30:21.730Z,102028.75
2022-12-20T01:32:48.373Z,102032.28
2022-12-20T01:35:15.069Z,102027.81
2022-12-20T01:37:41.623Z,102026.03
2022-12-20T01:40:09.370Z,102024.28
2022-12-20T01:42:36.044Z,102010.91
2022-12-20T01:45:07.499Z,102015.34
2022-12-20T01:47:37.539Z,102023.41
2022-12-20T01:50:06.163Z,102014.38
2022-12-20T01:52:37.130Z,102013.53
2022-12-20T01:55:10.727Z,101989.50
2022-12-20T01:57:42.263Z,102003.69
2022-12-20T02:00:10.218Z,101999.34
2022-12-20T02:02:38.546Z,101994.88
2022-12-20T02:05:06.296Z,101995.78
2022-12-20T02:07:36.139Z,101995.78
2022-12-20T02:10:04.091Z,101988.63
2022-12-20T02:12:38.721Z,101994.88
2022-12-20T02:15:26.953Z,101982.44
2022-12-20T02:18:07.822Z,101984.22
2022-12-20T02:20:58.306Z,101974.41
2022-12-20T02:23:50.356Z,101981.50
2022-12-20T02:26:39.564Z,101974.44
2022-12-20T02:29:23.575Z,101960.16
2022-12-20T02:32:01.342Z,101965.50
2022-12-20T02:34:30.130Z,101957.47
2022-12-20T02:36:56.753Z,101956.59
2022-12-20T02:39:27.068Z,101944.97
2022-12-20T02:41:56.344Z,101959.31
2022-12-20T02:44:26.297Z,101945.88
2022-12-20T02:46:56.345Z,101953.06
2022-12-20T02:49:28.715Z,101951.25
2022-12-20T02:51:57.356Z,101943.25
2022-12-20T02:54:24.674Z,101941.47
2022-12-20T02:56:56.374Z,101945.94
2022-12-20T02:59:26.043Z,101940.59
2022-12-20T03:01:55.790Z,101940.56
2022-12-20T03:04:26.155Z,101929.91
2022-12-20T03:07:00.288Z,101936.13
2022-12-20T03:09:26.947Z,101935.22
2022-12-20T03:11:54.305Z,101926.31
2022-12-20T03:14:21.159Z,101929.88
2022-12-20T03:16:47.814Z,101926.31
2022-12-20T03:19:15.819Z,101922.75
2022-12-20T03:21:42.585Z,101917.41
2022-12-20T03:24:09.238Z,101915.66
2022-12-20T03:26:35.807Z,101921.88
2022-12-20T03:29:02.593Z,101929.88
2022-12-20T03:31:29.351Z,101914.75
2022-12-20T03:33:56.316Z,101925.44
2022-12-20T03:36:24.436Z,101923.66
2022-12-20T03:38:51.600Z,101918.31
2022-12-20T03:41:19.861Z,101917.44
2022-12-20T03:43:46.501Z,101926.34
2022-12-20T03:46:13.575Z,101914.75
2022-12-20T03:48:40.303Z,101921.00
2022-12-20T03:51:06.954Z,101912.97
2022-12-20T03:53:34.957Z,101906.75
2022-12-20T03:56:01.693Z,101913.84
2022-12-20T03:58:28.344Z,101903.19
2022-12-20T04:00:56.504Z,101901.41
2022-12-20T04:03:23.225Z,101902.28
2022-12-20T04:05:49.826Z,101892.50
2022-12-20T04:08:16.548Z,101880.03
2022-12-20T04:10:47.388Z,101887.16
2022-12-20T04:13:20.255Z,101870.25
2022-12-20T04:16:00.039Z,101862.22
2022-12-20T04:18:30.338Z,101869.38
2022-12-20T04:21:02.163Z,101872.00
2022-12-20T04:23:29.197Z,101887.16
2022-12-20T04:26:00.667Z,101880.91
2022-12-20T04:28:30.488Z,101872.00
2022-12-20T04:31:01.462Z,101857.78
2022-12-20T04:33:30.977Z,101892.50
2022-12-20T04:36:01.036Z,101878.25
2022-12-20T04:38:30.686Z,101880.91
2022-12-20T04:41:03.616Z,101895.16
2022-12-20T04:43:31.588Z,101877.38
2022-12-20T04:46:00.404Z,101876.47
2022-12-20T04:51:17.316Z,101888.94
2022-12-20T04:53:44.592Z,101880.03
2022-12-20T04:56:13.092Z,101880.94
2022-12-20T04:58:42.081Z,101879.16
2022-12-20T05:01:12.252Z,101884.50
2022-12-20T05:03:42.842Z,101876.47
2022-12-20T05:06:11.988Z,101885.38
2022-12-20T05:08:38.744Z,101877.38
2022-12-20T05:11:06.307Z,101880.91
2022-12-20T05:13:35.159Z,101882.69
2022-12-20T05:16:02.250Z,101880.06
2022-12-20T05:18:29.003Z,101872.03
2022-12-20T05:20:57.171Z,101876.47
2022-12-20T05:23:23.784Z,101867.56
2022-12-20T05:25:51.072Z,101856.88
2022-12-20T05:28:17.720Z,101861.31
2022-12-20T05:30:45.915Z,101846.19
2022-12-20T05:33:13.010Z,101856.88
2022-12-20T05:35:39.872Z,101842.63
2022-12-20T05:38:09.352Z,101848.88
2022-12-20T05:40:37.715Z,101840.00
2022-12-20T05:43:06.210Z,101860.44
2022-12-20T05:45:38.429Z,101837.28
2022-12-20T05:48:07.120Z,101837.28
2022-12-20T05:50:33.733Z,101860.44
2022-12-20T05:53:02.532Z,101859.53
2022-12-20T05:55:32.622Z,101857.78
2022-12-20T05:57:59.376Z,101850.63
2022-12-20T06:00:26.011Z,101856.00
2022-12-20T06:02:52.859Z,101847.97
2022-12-20T06:05:21.092Z,101838.19
2022-12-20T06:07:47.699Z,101845.31
2022-12-20T06:10:14.422Z,101838.19
2022-12-20T06:12:41.021Z,101832.78
2022-12-20T06:15:08.669Z,101843.53
2022-12-20T06:17:35.289Z,101831.97
2022-12-20T06:20:02.004Z,101831.97
2022-12-20T06:22:30.211Z,101829.31
2022-12-20T06:24:56.925Z,101839.97
2022-12-20T06:27:23.596Z,101827.50
2022-12-20T06:29:50.310Z,101839.06
2022-12-20T06:32:17.835Z,101827.50
2022-12-20T06:34:45.464Z,101816.81
2022-12-20T06:37:12.478Z,101823.03
2022-12-20T06:39:41.659Z,101817.69
2022-12-20T06:42:08.446Z,101816.78
2022-12-20T06:44:35.854Z,101827.50
2022-12-20T06:47:03.208Z,101818.59
2022-12-20T06:49:30.094Z,101815.00
2022-12-20T06:51:56.994Z,101821.22
2022-12-20T06:54:23.793Z,101813.25
2022-12-20T06:56:52.421Z,101829.22
2022-12-20T06:59:19.578Z,101809.69
2022-12-20T07:01:46.859Z,101813.22
2022-12-20T07:04:13.950Z,101812.25
2022-12-20T07:06:40.635Z,101808.72
2022-12-20T07:09:07.479Z,101819.44
2022-12-20T07:11:34.490Z,101814.09
2022-12-20T07:14:02.741Z,101814.09
2022-12-20T07:16:30.032Z,101813.19
2022-12-20T07:18:56.924Z,101807.88
2022-12-20T07:21:24.110Z,101817.66
2022-12-20T07:23:52.895Z,101814.06
2022-12-20T07:26:19.790Z,101814.13
2022-12-20T07:28:46.752Z,101813.19
2022-12-20T07:31:15.512Z,101815.84
2022-12-20T07:33:42.521Z,101804.28
2022-12-20T07:36:11.765Z,101815.81
2022-12-20T07:38:52.047Z,101808.72
2022-12-20T07:44:19.186Z,101808.75
2022-12-20T07:47:06.787Z,101817.63
2022-12-20T07:49:38.760Z,101792.75
2022-12-20T07:52:23.969Z,101798.97
2022-12-20T07:55:05.334Z,101800.72
2022-12-20T07:57:44.347Z,101813.16
2022-12-20T08:00:40.626Z,101790.06
2022-12-20T08:03:33.450Z,101820.25
2022-12-20T08:06:15.700Z,101806.09
2022-12-20T08:09:00.508Z,101792.66
2022-12-20T08:14:29.255Z,101780.22
2022-12-20T08:17:12.575Z,101781.06
2022-12-20T08:20:19.592Z,101798.91
2022-12-20T08:22:58.121Z,101778.41
2022-12-20T08:25:42.124Z,101811.38
2022-12-20T08:31:20.267Z,101806.94
2022-12-20T08:34:07.317Z,101778.47
2022-12-20T08:36:53.121Z,101792.66
2022-12-20T08:39:39.580Z,101799.75
2022-12-20T08:45:19.660Z,101792.69
2022-12-20T08:48:03.287Z,101806.91
2022-12-20T08:50:45.965Z,101780.19
2022-12-20T08:53:27.335Z,101805.03
2022-12-20T08:59:09.111Z,101822.84
2022-12-20T09:01:51.217Z,101815.84
2022-12-20T09:04:24.609Z,101793.56
2022-12-20T09:07:06.272Z,101805.13
2022-12-20T09:09:47.244Z,101798.81
2022-12-20T09:12:33.925Z,101800.63
2022-12-20T09:15:27.836Z,101813.06
2022-12-20T09:18:03.009Z,101787.25
2022-12-20T09:21:00.238Z,101805.97
2022-12-20T09:23:41.382Z,101769.47
2022-12-20T09:26:19.671Z,101761.38
2022-12-20T09:29:03.633Z,101797.94
2022-12-20T09:31:50.196Z,101789.00
2022-12-20T09:34:22.347Z,101765.84
2022-12-20T09:37:16.094Z,101758.63
2022-12-20T09:39:53.457Z,101762.25
2022-12-20T09:42:37.210Z,101776.34
2022-12-20T09:45:29.549Z,101747.09
2022-12-20T09:48:17.023Z,101751.44
2022-12-20T09:51:25.419Z,101753.22
2022-12-20T09:54:17.471Z,101731.00
2022-12-20T09:57:23.157Z,101753.19
2022-12-20T10:03:10.997Z,101738.94
2022-12-20T10:05:59.719Z,101725.50
2022-12-20T10:09:04.185Z,101713.19
2022-12-20T10:12:22.904Z,101709.50
2022-12-20T10:15:22.773Z,101711.25
2022-12-20T10:18:22.457Z,101698.81
2022-12-20T10:21:05.719Z,101723.72
2022-12-20T10:23:57.799Z,101725.50
2022-12-20T10:26:24.496Z,101707.66
2022-12-20T10:29:02.592Z,101696.91
2022-12-20T10:32:01.642Z,101696.06
2022-12-20T10:37:28.894Z,101687.91
2022-12-20T10:40:07.394Z,101696.91
2022-12-20T10:42:49.686Z,101702.31
2022-12-20T10:45:47.391Z,101689.91
2022-12-20T10:48:41.877Z,101697.81
2022-12-20T10:51:45.571Z,101671.28
2022-12-20T10:54:39.016Z,101674.72
2022-12-20T11:00:35.327Z,101635.63
2022-12-20T11:03:26.457Z,101644.44
2022-12-20T11:06:23.540Z,101665.66
2022-12-20T11:09:15.464Z,101637.03
2022-12-20T11:12:11.872Z,101666.44
2022-12-20T11:14:52.014Z,101627.31
2022-12-20T11:17:28.549Z,101638.88
2022-12-20T11:20:11.858Z,101638.81
2022-12-20T11:22:49.399Z,101637.94
2022-12-20T11:25:35.148Z,101639.75
2022-12-20T11:28:17.419Z,101633.41
2022-12-20T11:30:54.260Z,101626.22
2022-12-20T11:33:42.160Z,101618.22
2022-12-20T11:36:19.022Z,101616.25
2022-12-20T11:38:51.523Z,101616.31
2022-12-20T11:41:24.771Z,101607.50
2022-12-20T11:47:08.125Z,101610.16
2022-12-20T11:49:53.244Z,101594.03
2022-12-20T11:52:32.850Z,101589.69
2022-12-20T11:55:04.184Z,101595.19
2022-12-20T11:57:55.154Z,101588.81
2022-12-20T12:00:25.780Z,101586.94
2022-12-20T12:02:58.812Z,101596.84
2022-12-20T12:05:30.007Z,101600.31
2022-12-20T12:08:03.966Z,101593.31
2022-12-20T12:10:36.223Z,101574.44
2022-12-20T12:13:11.757Z,101574.34
2022-12-20T12:15:51.089Z,101577.81
2022-12-20T12:18:24.869Z,101572.63
2022-12-20T12:21:09.373Z,101560.19
2022-12-20T12:23:58.963Z,101554.91
2022-12-20T12:26:42.086Z,101549.56
2022-12-20T12:29:24.304Z,101525.75
2022-12-20T12:32:04.981Z,101554.19
2022-12-20T12:35:12.961Z,101539.97
2022-12-20T12:38:09.748Z,101551.19
2022-12-20T12:41:11.958Z,101553.03
2022-12-20T12:44:27.792Z,101523.13
2022-12-20T12:47:16.991Z,101522.09
2022-12-20T12:50:05.845Z,101517.66
2022-12-20T12:52:53.002Z,101514.84
2022-12-20T12:56:41.713Z,101522.88
2022-12-20T12:59:48.264Z,101511.38
2022-12-20T13:03:01.569Z,101529.88
2022-12-20T13:06:05.191Z,101506.09
2022-12-20T13:11:47.837Z,101519.41
2022-12-20T13:14:58.019Z,101532.47
2022-12-20T13:18:01.319Z,101523.56
2022-12-20T13:20:38.539Z,101522.69
2022-12-20T13:23:34.561Z,101510.41
2022-12-20T13:26:41.001Z,101520.28
2022-12-20T13:29:24.134Z,101520.25
2022-12-20T13:31:58.732Z,101518.47
2022-12-20T13:34:52.256Z,101533.44
2022-12-20T13:37:54.357Z,101522.69
2022-12-20T13:40:31.955Z,101524.53
2022-12-20T13:43:05.730Z,101508.50
2022-12-20T13:45:33.004Z,101518.41
2022-12-20T13:48:19.908Z,101503.28
2022-12-20T13:50:49.687Z,101522.88
2022-12-20T13:53:31.764Z,101522.84
2022-12-20T13:56:32.893Z,101513.88
2022-12-20T13:59:05.416Z,101497.63
2022-12-20T14:01:33.089Z,101493.06
2022-12-20T14:04:05.300Z,101494.97
2022-12-20T14:06:32.015Z,101499.56
2022-12-20T14:08:58.636Z,101500.41
2022-12-20T14:11:27.248Z,101500.66
2022-12-20T14:13:55.886Z,101479.28
2022-12-20T14:16:24.776Z,101479.94
2022-12-20T14:19:01.390Z,101503.44
2022-12-20T14:21:28.937Z,101491.69
2022-12-20T14:23:57.676Z,101498.69
2022-12-20T14:26:28.191Z,101496.97
2022-12-20T14:28:56.963Z,101502.16
2022-12-20T14:31:26.179Z,101488.78
2022-12-20T14:34:02.178Z,101495.09
2022-12-20T14:36:28.872Z,101480.13
2022-12-20T14:38:55.464Z,101485.41
2022-12-20T14:41:35.663Z,101493.38
2022-12-20T14:44:16.190Z,101481.75
2022-12-20T14:46:49.327Z,101476.41
2022-12-20T14:49:20.851Z,101480.84
2022-12-20T14:51:48.400Z,101473.81
2022-12-20T14:54:39.881Z,101488.88
2022-12-20T14:57:11.516Z,101469.31
2022-12-20T14:59:38.164Z,101475.47
2022-12-20T15:02:31.603Z,101485.41
2022-12-20T15:04:58.396Z,101472.97
2022-12-20T15:07:31.716Z,101471.09
2022-12-20T15:09:58.265Z,101465.72
2022-12-20T15:12:26.298Z,101468.66
2022-12-20T15:14:52.987Z,101452.78
2022-12-20T15:17:19.650Z,101472.19
2022-12-20T15:19:46.267Z,101460.53
2022-12-20T15:22:15.759Z,101468.41
2022-12-20T15:24:42.546Z,101480.13
2022-12-20T15:27:12.618Z,101457.75
2022-12-20T15:29:40.703Z,101450.63
2022-12-20T15:32:15.727Z,101462.25
2022-12-20T15:34:42.465Z,101463.28
2022-12-20T15:37:18.364Z,101453.47
2022-12-20T15:39:46.254Z,101463.31
2022-12-20T15:42:16.443Z,101455.28
2022-12-20T15:44:44.864Z,101457.97
2022-12-20T15:47:13.182Z,101459.69
2022-12-20T15:49:44.573Z,101445.28
2022-12-20T15:52:19.645Z,101448.03
2022-12-20T15:54:46.317Z,101453.44
2022-12-20T15:57:14.141Z,101445.38
2022-12-20T16:02:30.460Z,101425.06
2022-12-20T16:04:57.358Z,101434.91
2022-12-20T16:07:27.976Z,101417.91
2022-12-20T16:09:54.634Z,101427.63
2022-12-20T16:12:25.244Z,101426.78
2022-12-20T16:14:51.832Z,101424.91
2022-12-20T16:17:18.593Z,101412.53
2022-12-20T16:19:46.856Z,101407.09
2022-12-20T16:22:15.719Z,101432.06
2022-12-20T16:24:42.476Z,101416.09
2022-12-20T16:27:11.890Z,101432.91
2022-12-20T16:29:38.813Z,101394.59
2022-12-20T16:32:14.365Z,101429.28
2022-12-20T16:34:41.077Z,101402.69
2022-12-20T16:37:09.512Z,101406.16
2022-12-20T16:39:36.310Z,101421.28
2022-12-20T16:42:03.108Z,101425.66
2022-12-20T16:44:29.774Z,101411.44
2022-12-20T16:47:05.196Z,101417.81
2022-12-20T16:49:31.922Z,101410.03
2022-12-20T16:51:58.645Z,101432.09
2022-12-20T16:54:26.591Z,101420.38
2022-12-20T16:56:53.215Z,101405.13
2022-12-20T16:59:22.537Z,101403.38
2022-12-20T17:01:52.707Z,101400.72
2022-12-20T17:04:19.817Z,101398.13
2022-12-20T17:06:46.660Z,101394.63
2022-12-20T17:09:13.923Z,101378.63
2022-12-20T17:11:42.367Z,101397.13
2022-12-20T17:14:12.936Z,101396.41
2022-12-20T17:16:39.943Z,101394.41
2022-12-20T17:19:06.571Z,101394.31
2022-12-20T17:24:22.960Z,101395.31
2022-12-20T17:26:51.248Z,101394.69
2022-12-20T17:29:17.946Z,101408.91
2022-12-20T17:31:46.034Z,101407.00
2022-12-20T17:34:16.430Z,101402.31
2022-12-20T17:36:43.107Z,101396.34
2022-12-20T17:39:09.777Z,101395.38
2022-12-20T17:41:36.724Z,101401.66
2022-12-20T17:44:06.337Z,101404.44
2022-12-20T17:46:32.762Z,101390.19
2022-12-20T17:48:59.399Z,101399.00
2022-12-20T17:51:28.029Z,101410.75
2022-12-20T17:53:56.367Z,101391.25
2022-12-20T17:56:25.791Z,101400.81
2022-12-20T17:58:53.380Z,101390.19
2022-12-20T18:01:23.683Z,101418.63
2022-12-20T18:04:03.659Z,101415.25
2022-12-20T18:06:32.292Z,101394.59
2022-12-20T18:08:59.230Z,101410.56
2022-12-20T18:11:28.200Z,101404.34
2022-12-20T18:13:56.227Z,101399.00
2022-12-20T18:16:26.790Z,101407.19
2022-12-20T18:18:53.519Z,101409.88
2022-12-20T18:21:21.400Z,101422.38
2022-12-20T18:23:48.510Z,101420.56
2022-12-20T18:26:17.413Z,101414.28
2022-12-20T18:28:46.171Z,101410.91
2022-12-20T18:31:14.575Z,101409.03
2022-12-20T18:33:42.603Z,101402.59
2022-12-20T18:36:11.977Z,101398.97
2022-12-20T18:38:40.279Z,101396.47
2022-12-20T18:41:08.509Z,101384.97
2022-12-20T18:43:35.698Z,101377.72
2022-12-20T18:46:04.401Z,101381.25
2022-12-20T18:48:31.104Z,101374.22
2022-12-20T18:51:04.071Z,101371.28
2022-12-20T18:53:31.849Z,101369.56
2022-12-20T18:56:01.727Z,101369.63
2022-12-20T18:58:28.441Z,101362.38
2022-12-20T19:00:56.984Z,101356.31
2022-12-20T19:03:23.751Z,101356.28
2022-12-20T19:05:51.655Z,101360.59
2022-12-20T19:08:19.639Z,101354.38
2022-12-20T19:10:46.457Z,101352.56
2022-12-20T19:13:13.051Z,101353.50
2022-12-20T19:15:39.774Z,101345.69
2022-12-20T19:18:06.419Z,101349.31
2022-12-20T19:20:34.949Z,101350.94
2022-12-20T19:23:01.597Z,101343.69
2022-12-20T19:25:32.408Z,101342.03
2022-12-20T19:27:59.087Z,101344.78
2022-12-20T19:30:25.676Z,101338.63
2022-12-20T19:32:52.314Z,101334.81
2022-12-20T19:35:53.462Z,101327.03
2022-12-20T19:38:05.490Z,101324.03
2022-12-20T19:40:33.460Z,101324.84
2022-12-20T19:43:00.088Z,101322.38
2022-12-20T19:45:26.703Z,101328.59
2022-12-20T19:47:53.296Z,101322.34
2022-12-20T19:50:20.109Z,101324.06
2022-12-20T19:52:46.749Z,101325.78
2022-12-20T19:55:13.361Z,101321.16
2022-12-20T19:57:41.386Z,101323.28
2022-12-20T20:00:09.425Z,101331.28
2022-12-20T20:02:36.139Z,101325.22
2022-12-20T20:05:02.985Z,101328.13
2022-12-20T20:07:29.547Z,101315.59
2022-12-20T20:09:56.188Z,101319.09
2022-12-20T20:12:22.891Z,101316.41
2022-12-20T20:14:50.919Z,101303.06
2022-12-20T20:17:17.555Z,101306.50
2022-12-20T20:19:45.809Z,101301.19
2022-12-20T20:22:16.458Z,101298.50
2022-12-20T20:24:45.909Z,101310.69
2022-12-20T20:27:12.601Z,101296.53
2022-12-20T20:29:39.299Z,101294.66
2022-12-20T20:32:07.364Z,101293.03
2022-12-20T20:34:34.227Z,101289.50
2022-12-20T20:37:01.139Z,101284.97
2022-12-20T20:39:28.009Z,101265.31
2022-12-20T20:41:54.740Z,101258.28
2022-12-20T20:44:21.398Z,101280.75
2022-12-20T20:46:48.180Z,101285.84
2022-12-20T20:49:16.279Z,101265.47
2022-12-20T20:51:48.512Z,101280.31
2022-12-20T20:54:15.288Z,101275.03
2022-12-20T20:56:42.170Z,101276.91
2022-12-20T20:59:15.266Z,101264.56
2022-12-20T21:01:44.410Z,101265.34
2022-12-20T21:04:11.272Z,101263.00
2022-12-20T21:06:44.264Z,101251.53
2022-12-20T21:09:15.155Z,101264.59
2022-12-20T21:11:42.544Z,101246.72
2022-12-20T21:14:09.284Z,101265.31
2022-12-20T21:16:36.073Z,101276.81
2022-12-20T21:19:03.111Z,101274.97
2022-12-20T21:21:29.918Z,101251.75
2022-12-20T21:23:58.003Z,101264.34
2022-12-20T21:26:24.657Z,101248.63
2022-12-20T21:28:56.391Z,101257.69
2022-12-20T21:31:23.238Z,101245.75
2022-12-20T21:33:50.086Z,101244.78
2022-12-20T21:36:18.318Z,101262.44
2022-12-20T21:38:47.446Z,101228.75
2022-12-20T21:41:16.232Z,101228.84
2022-12-20T21:43:43.269Z,101244.66
2022-12-20T21:46:12.651Z,101243.94
2022-12-20T21:48:39.798Z,101247.56
2022-12-20T21:51:08.205Z,101245.72
2022-12-20T21:53:34.848Z,101246.69
2022-12-20T21:56:01.877Z,101228.84
2022-12-20T21:58:30.642Z,101229.66
2022-12-20T22:00:57.815Z,101207.78
2022-12-20T22:03:31.925Z,101221.78
2022-12-20T22:05:58.980Z,101215.75
2022-12-20T22:08:30.005Z,101204.13
2022-12-20T22:11:00.763Z,101211.84
2022-12-20T22:13:27.507Z,101215.59
2022-12-20T22:15:55.916Z,101204.97
2022-12-20T22:18:23.090Z,101219.81
2022-12-20T22:20:49.744Z,101203.97
2022-12-20T22:23:16.484Z,101201.94
2022-12-20T22:25:43.505Z,101187.81
2022-12-20T22:28:10.156Z,101185.06
2022-12-20T22:30:40.796Z,101182.59
2022-12-20T22:33:09.118Z,101182.31
2022-12-20T22:35:35.752Z,101189.78
2022-12-20T22:38:02.408Z,101179.97
2022-12-20T22:40:28.983Z,101176.41
2022-12-20T22:42:55.597Z,101167.22
2022-12-20T22:45:22.288Z,101161.97
2022-12-20T22:47:48.912Z,101154.97
2022-12-20T22:50:17.041Z,101160.03
2022-12-20T22:52:43.660Z,101166.34
2022-12-20T22:55:11.161Z,101154.53
2022-12-20T22:57:37.819Z,101146.88
2022-12-20T23:00:06.387Z,101157.44
2022-12-20T23:02:33.136Z,101157.44
2022-12-20T23:05:03.126Z,101146.84
2022-12-20T23:07:31.390Z,101123.66
2022-12-20T23:09:57.980Z,101134.34
2022-12-20T23:12:24.635Z,101125.31
2022-12-20T23:14:51.301Z,101130.59
2022-12-20T23:17:18.016Z,101130.84
2022-12-20T23:19:45.015Z,101122.53
2022-12-20T23:22:11.799Z,101108.41
2022-12-20T23:24:41.735Z,101100.34
2022-12-20T23:27:08.375Z,101104.78
2022-12-20T23:29:35.082Z,101099.59
2022-12-20T23:32:01.864Z,101105.91
2022-12-20T23:34:28.555Z,101084.50
2022-12-20T23:36:55.301Z,101101.03
2022-12-20T23:39:22.007Z,101095.06
2022-12-20T23:41:50.152Z,101093.63
2022-12-20T23:44:16.814Z,101092.41
2022-12-20T23:46:43.443Z,101097.63
2022-12-20T23:49:10.103Z,101095.06
2022-12-20T23:51:36.735Z,101098.63
2022-12-20T23:54:03.439Z,101083.41
2022-12-20T23:56:30.312Z,101088.78
2022-12-20T23:58:58.369Z,101089.81
